Terminal Aerodrome Forecast
Issued by NWS

Home | Current Version | Previous Version | Text Only | Print | Product List | Glossary On
Versions: 1 2 3 4 5 6 7 8 9 10 11 12 13 14 15 16 17 18 19 20 21 22 23 24
000
FTUS43 KMKX 161120
TAFUES
TAF
KUES 161120Z 1612/1712 00000KT P6SM OVC080
     FM161500 08007KT P6SM BKN015
     FM170000 08005KT P6SM BKN035
     FM170300 VRB04KT 6SM BR BKN010
     FM170700 VRB04KT P6SM BKN008=

USA.gov is the U.S. government's official web portal to all federal, state and local government web resources and services.